sensor_id;sensor_type;location;lat;lon;timestamp;temperature;humidity
42365;DHT22;28498;54.400;18.566;2023-04-03T00:01:04;2.20;99.90
42365;DHT22;28498;54.400;18.566;2023-04-03T00:03:31;2.20;99.90
42365;DHT22;28498;54.400;18.566;2023-04-03T00:05:59;2.20;99.90
42365;DHT22;28498;54.400;18.566;2023-04-03T00:08:26;2.20;99.90
42365;DHT22;28498;54.400;18.566;2023-04-03T00:10:53;2.20;99.90
42365;DHT22;28498;54.400;18.566;2023-04-03T00:13:20;2.30;99.90
42365;DHT22;28498;54.400;18.566;2023-04-03T00:15:47;2.30;99.90
42365;DHT22;28498;54.400;18.566;2023-04-03T00:18:14;2.20;99.90
42365;DHT22;28498;54.400;18.566;2023-04-03T00:20:41;2.20;99.90
42365;DHT22;28498;54.400;18.566;2023-04-03T00:23:08;2.30;99.90
42365;DHT22;28498;54.400;18.566;2023-04-03T00:25:36;2.20;99.90
42365;DHT22;28498;54.400;18.566;2023-04-03T00:28:04;2.20;99.90
42365;DHT22;28498;54.400;18.566;2023-04-03T00:30:32;2.20;99.90
42365;DHT22;28498;54.400;18.566;2023-04-03T00:32:59;2.20;99.90
42365;DHT22;28498;54.400;18.566;2023-04-03T00:35:28;2.20;99.90
42365;DHT22;28498;54.400;18.566;2023-04-03T00:37:55;2.20;99.90
42365;DHT22;28498;54.400;18.566;2023-04-03T00:40:24;2.20;99.90
42365;DHT22;28498;54.400;18.566;2023-04-03T00:42:56;2.20;99.90
42365;DHT22;28498;54.400;18.566;2023-04-03T00:45:25;2.20;99.90
42365;DHT22;28498;54.400;18.566;2023-04-03T00:47:53;2.20;99.90
42365;DHT22;28498;54.400;18.566;2023-04-03T00:50:20;2.20;99.90
42365;DHT22;28498;54.400;18.566;2023-04-03T00:52:47;2.20;99.90
42365;DHT22;28498;54.400;18.566;2023-04-03T00:55:16;2.20;99.90
42365;DHT22;28498;54.400;18.566;2023-04-03T00:57:44;2.20;99.90
42365;DHT22;28498;54.400;18.566;2023-04-03T01:00:14;2.20;99.90
42365;DHT22;28498;54.400;18.566;2023-04-03T01:02:43;2.20;99.90
42365;DHT22;28498;54.400;18.566;2023-04-03T01:05:12;2.20;99.90
42365;DHT22;28498;54.400;18.566;2023-04-03T01:07:41;2.20;99.90
42365;DHT22;28498;54.400;18.566;2023-04-03T01:10:10;2.20;99.90
42365;DHT22;28498;54.400;18.566;2023-04-03T01:12:42;2.10;99.90
42365;DHT22;28498;54.400;18.566;2023-04-03T01:15:19;2.10;99.90
42365;DHT22;28498;54.400;18.566;2023-04-03T01:17:50;2.10;99.90
42365;DHT22;28498;54.400;18.566;2023-04-03T01:25:50;1.90;99.90
42365;DHT22;28498;54.400;18.566;2023-04-03T01:28:28;1.90;99.90
42365;DHT22;28498;54.400;18.566;2023-04-03T01:33:32;1.80;99.90
42365;DHT22;28498;54.400;18.566;2023-04-03T01:35:59;1.80;99.90
42365;DHT22;28498;54.400;18.566;2023-04-03T01:38:27;1.80;99.90
42365;DHT22;28498;54.400;18.566;2023-04-03T01:40:54;1.80;99.90
42365;DHT22;28498;54.400;18.566;2023-04-03T01:43:21;1.90;99.90
42365;DHT22;28498;54.400;18.566;2023-04-03T01:45:48;1.90;99.90
42365;DHT22;28498;54.400;18.566;2023-04-03T01:48:16;1.90;99.90
42365;DHT22;28498;54.400;18.566;2023-04-03T01:50:43;1.90;99.90
42365;DHT22;28498;54.400;18.566;2023-04-03T01:53:10;1.90;99.90
42365;DHT22;28498;54.400;18.566;2023-04-03T01:55:37;1.90;99.90
42365;DHT22;28498;54.400;18.566;2023-04-03T01:58:04;1.90;99.90
42365;DHT22;28498;54.400;18.566;2023-04-03T02:00:31;1.90;99.90
42365;DHT22;28498;54.400;18.566;2023-04-03T02:02:58;1.90;99.90
42365;DHT22;28498;54.400;18.566;2023-04-03T02:05:26;1.90;99.90
42365;DHT22;28498;54.400;18.566;2023-04-03T02:07:53;1.90;99.90
42365;DHT22;28498;54.400;18.566;2023-04-03T02:10:20;1.90;99.90
42365;DHT22;28498;54.400;18.566;2023-04-03T02:12:47;1.90;99.90
42365;DHT22;28498;54.400;18.566;2023-04-03T02:15:14;1.80;99.90
42365;DHT22;28498;54.400;18.566;2023-04-03T02:17:40;1.80;99.90
42365;DHT22;28498;54.400;18.566;2023-04-03T02:20:08;1.80;99.90
42365;DHT22;28498;54.400;18.566;2023-04-03T02:22:36;1.90;99.90
42365;DHT22;28498;54.400;18.566;2023-04-03T02:25:03;1.90;99.90
42365;DHT22;28498;54.400;18.566;2023-04-03T02:27:30;1.90;99.90
42365;DHT22;28498;54.400;18.566;2023-04-03T02:29:58;2.00;99.90
42365;DHT22;28498;54.400;18.566;2023-04-03T02:32:25;1.90;99.90
42365;DHT22;28498;54.400;18.566;2023-04-03T02:34:52;1.90;99.90
42365;DHT22;28498;54.400;18.566;2023-04-03T02:37:19;1.90;99.90
42365;DHT22;28498;54.400;18.566;2023-04-03T02:39:46;1.90;99.90
42365;DHT22;28498;54.400;18.566;2023-04-03T02:42:13;2.00;99.90
42365;DHT22;28498;54.400;18.566;2023-04-03T02:44:41;2.00;99.90
42365;DHT22;28498;54.400;18.566;2023-04-03T02:47:08;2.00;99.90
42365;DHT22;28498;54.400;18.566;2023-04-03T02:49:35;2.00;99.90
42365;DHT22;28498;54.400;18.566;2023-04-03T02:52:02;2.10;99.90
42365;DHT22;28498;54.400;18.566;2023-04-03T02:54:29;2.10;99.90
42365;DHT22;28498;54.400;18.566;2023-04-03T02:56:57;2.10;99.90
42365;DHT22;28498;54.400;18.566;2023-04-03T02:59:25;2.00;99.90
42365;DHT22;28498;54.400;18.566;2023-04-03T03:01:52;2.10;99.90
42365;DHT22;28498;54.400;18.566;2023-04-03T03:04:19;2.10;99.90
42365;DHT22;28498;54.400;18.566;2023-04-03T03:06:46;2.10;99.90
42365;DHT22;28498;54.400;18.566;2023-04-03T03:09:13;2.10;99.90
42365;DHT22;28498;54.400;18.566;2023-04-03T03:11:41;2.10;99.90
42365;DHT22;28498;54.400;18.566;2023-04-03T03:14:08;2.10;99.90
42365;DHT22;28498;54.400;18.566;2023-04-03T03:16:35;2.10;99.90
42365;DHT22;28498;54.400;18.566;2023-04-03T03:19:02;2.10;99.90
42365;DHT22;28498;54.400;18.566;2023-04-03T03:21:29;2.10;99.90
42365;DHT22;28498;54.400;18.566;2023-04-03T03:23:56;2.10;99.90
42365;DHT22;28498;54.400;18.566;2023-04-03T03:26:23;2.10;99.90
42365;DHT22;28498;54.400;18.566;2023-04-03T03:28:50;2.10;99.90
42365;DHT22;28498;54.400;18.566;2023-04-03T03:31:17;2.00;99.90
42365;DHT22;28498;54.400;18.566;2023-04-03T03:33:44;2.00;99.80
42365;DHT22;28498;54.400;18.566;2023-04-03T03:36:11;2.00;99.90
42365;DHT22;28498;54.400;18.566;2023-04-03T03:38:38;2.00;99.90
42365;DHT22;28498;54.400;18.566;2023-04-03T03:41:05;2.10;99.90
42365;DHT22;28498;54.400;18.566;2023-04-03T03:43:32;2.10;99.90
42365;DHT22;28498;54.400;18.566;2023-04-03T03:45:59;2.10;99.40
42365;DHT22;28498;54.400;18.566;2023-04-03T03:48:26;2.10;98.90
42365;DHT22;28498;54.400;18.566;2023-04-03T03:50:53;2.10;99.90
42365;DHT22;28498;54.400;18.566;2023-04-03T03:53:20;2.00;99.90
42365;DHT22;28498;54.400;18.566;2023-04-03T03:55:47;2.00;98.10
42365;DHT22;28498;54.400;18.566;2023-04-03T03:58:14;2.10;98.30
42365;DHT22;28498;54.400;18.566;2023-04-03T04:00:41;2.10;98.50
42365;DHT22;28498;54.400;18.566;2023-04-03T04:03:08;2.10;99.10
42365;DHT22;28498;54.400;18.566;2023-04-03T04:05:35;2.20;99.10
42365;DHT22;28498;54.400;18.566;2023-04-03T04:08:03;2.10;99.40
42365;DHT22;28498;54.400;18.566;2023-04-03T04:10:30;2.00;99.90
42365;DHT22;28498;54.400;18.566;2023-04-03T04:12:57;2.00;98.30
42365;DHT22;28498;54.400;18.566;2023-04-03T04:15:24;1.90;97.80
42365;DHT22;28498;54.400;18.566;2023-04-03T04:17:52;1.90;97.80
42365;DHT22;28498;54.400;18.566;2023-04-03T04:20:20;1.90;97.40
42365;DHT22;28498;54.400;18.566;2023-04-03T04:22:47;1.80;97.20
42365;DHT22;28498;54.400;18.566;2023-04-03T04:25:14;1.80;97.30
42365;DHT22;28498;54.400;18.566;2023-04-03T04:27:41;1.90;98.00
42365;DHT22;28498;54.400;18.566;2023-04-03T04:30:08;1.80;99.10
42365;DHT22;28498;54.400;18.566;2023-04-03T04:32:36;1.90;99.50
42365;DHT22;28498;54.400;18.566;2023-04-03T04:35:04;1.90;99.60
42365;DHT22;28498;54.400;18.566;2023-04-03T04:37:31;1.90;99.90
42365;DHT22;28498;54.400;18.566;2023-04-03T04:39:58;1.90;99.40
42365;DHT22;28498;54.400;18.566;2023-04-03T04:42:25;1.90;99.90
42365;DHT22;28498;54.400;18.566;2023-04-03T04:44:52;1.90;99.40
42365;DHT22;28498;54.400;18.566;2023-04-03T04:47:19;1.90;99.10
42365;DHT22;28498;54.400;18.566;2023-04-03T04:49:46;1.90;99.90
42365;DHT22;28498;54.400;18.566;2023-04-03T04:52:14;1.90;99.30
42365;DHT22;28498;54.400;18.566;2023-04-03T04:54:41;1.90;97.90
42365;DHT22;28498;54.400;18.566;2023-04-03T04:57:08;1.90;98.10
42365;DHT22;28498;54.400;18.566;2023-04-03T04:59:35;1.90;98.90
42365;DHT22;28498;54.400;18.566;2023-04-03T05:02:02;1.90;99.10
42365;DHT22;28498;54.400;18.566;2023-04-03T05:04:29;1.90;99.00
42365;DHT22;28498;54.400;18.566;2023-04-03T05:06:56;1.90;97.90
42365;DHT22;28498;54.400;18.566;2023-04-03T05:09:23;1.90;98.60
42365;DHT22;28498;54.400;18.566;2023-04-03T05:11:50;1.90;98.70
42365;DHT22;28498;54.400;18.566;2023-04-03T05:14:17;2.00;99.20
42365;DHT22;28498;54.400;18.566;2023-04-03T05:16:44;2.00;98.40
42365;DHT22;28498;54.400;18.566;2023-04-03T05:19:11;1.90;98.40
42365;DHT22;28498;54.400;18.566;2023-04-03T05:21:38;1.90;98.60
42365;DHT22;28498;54.400;18.566;2023-04-03T05:24:05;2.00;99.30
42365;DHT22;28498;54.400;18.566;2023-04-03T05:26:35;1.90;99.90
42365;DHT22;28498;54.400;18.566;2023-04-03T05:29:03;2.00;99.90
42365;DHT22;28498;54.400;18.566;2023-04-03T05:31:30;2.00;99.90
42365;DHT22;28498;54.400;18.566;2023-04-03T05:33:57;2.10;99.90
42365;DHT22;28498;54.400;18.566;2023-04-03T05:36:24;2.00;99.90
42365;DHT22;28498;54.400;18.566;2023-04-03T05:38:52;2.10;99.10
42365;DHT22;28498;54.400;18.566;2023-04-03T05:41:20;2.20;99.10
42365;DHT22;28498;54.400;18.566;2023-04-03T05:43:50;2.30;99.20
42365;DHT22;28498;54.400;18.566;2023-04-03T05:46:19;2.30;99.40
42365;DHT22;28498;54.400;18.566;2023-04-03T05:48:47;2.30;99.00
42365;DHT22;28498;54.400;18.566;2023-04-03T05:51:17;2.30;99.50
42365;DHT22;28498;54.400;18.566;2023-04-03T05:53:45;2.30;98.80
42365;DHT22;28498;54.400;18.566;2023-04-03T05:56:13;2.20;99.00
42365;DHT22;28498;54.400;18.566;2023-04-03T05:58:41;2.10;99.90
42365;DHT22;28498;54.400;18.566;2023-04-03T06:01:08;2.00;98.80
42365;DHT22;28498;54.400;18.566;2023-04-03T06:03:35;2.00;99.10
42365;DHT22;28498;54.400;18.566;2023-04-03T06:06:05;1.90;98.50
42365;DHT22;28498;54.400;18.566;2023-04-03T06:08:32;1.90;98.80
42365;DHT22;28498;54.400;18.566;2023-04-03T06:11:00;2.10;98.10
42365;DHT22;28498;54.400;18.566;2023-04-03T06:13:28;2.30;97.30
42365;DHT22;28498;54.400;18.566;2023-04-03T06:15:56;2.40;97.30
42365;DHT22;28498;54.400;18.566;2023-04-03T06:18:23;2.30;96.60
42365;DHT22;28498;54.400;18.566;2023-04-03T06:20:50;2.20;97.80
42365;DHT22;28498;54.400;18.566;2023-04-03T06:23:17;2.20;98.50
42365;DHT22;28498;54.400;18.566;2023-04-03T06:25:44;2.20;98.50
42365;DHT22;28498;54.400;18.566;2023-04-03T06:28:11;2.20;98.20
42365;DHT22;28498;54.400;18.566;2023-04-03T06:30:38;2.30;97.60
42365;DHT22;28498;54.400;18.566;2023-04-03T06:33:06;2.60;97.80
42365;DHT22;28498;54.400;18.566;2023-04-03T06:35:33;2.80;98.70
42365;DHT22;28498;54.400;18.566;2023-04-03T06:38:01;2.90;97.70
42365;DHT22;28498;54.400;18.566;2023-04-03T06:40:30;2.90;97.60
42365;DHT22;28498;54.400;18.566;2023-04-03T06:42:58;3.10;96.20
42365;DHT22;28498;54.400;18.566;2023-04-03T06:45:25;3.00;93.40
42365;DHT22;28498;54.400;18.566;2023-04-03T06:47:52;3.10;93.20
42365;DHT22;28498;54.400;18.566;2023-04-03T06:50:19;3.30;92.30
42365;DHT22;28498;54.400;18.566;2023-04-03T06:52:46;3.50;92.60
42365;DHT22;28498;54.400;18.566;2023-04-03T06:55:13;3.20;92.30
42365;DHT22;28498;54.400;18.566;2023-04-03T06:57:40;3.00;91.60
42365;DHT22;28498;54.400;18.566;2023-04-03T07:00:08;2.90;92.10
42365;DHT22;28498;54.400;18.566;2023-04-03T07:02:36;3.10;92.40
42365;DHT22;28498;54.400;18.566;2023-04-03T07:05:04;2.80;90.80
42365;DHT22;28498;54.400;18.566;2023-04-03T07:07:31;2.70;91.20
42365;DHT22;28498;54.400;18.566;2023-04-03T07:10:00;2.70;91.40
42365;DHT22;28498;54.400;18.566;2023-04-03T07:12:27;2.70;90.60
42365;DHT22;28498;54.400;18.566;2023-04-03T07:14:54;2.80;91.80
42365;DHT22;28498;54.400;18.566;2023-04-03T07:17:21;2.80;90.10
42365;DHT22;28498;54.400;18.566;2023-04-03T07:19:48;2.80;90.40
42365;DHT22;28498;54.400;18.566;2023-04-03T07:22:15;2.70;89.20
42365;DHT22;28498;54.400;18.566;2023-04-03T07:24:42;2.70;90.30
42365;DHT22;28498;54.400;18.566;2023-04-03T07:27:09;2.80;89.70
42365;DHT22;28498;54.400;18.566;2023-04-03T07:29:37;2.80;90.10
42365;DHT22;28498;54.400;18.566;2023-04-03T07:32:04;2.80;90.50
42365;DHT22;28498;54.400;18.566;2023-04-03T07:34:32;3.00;91.20
42365;DHT22;28498;54.400;18.566;2023-04-03T07:36:59;3.20;91.40
42365;DHT22;28498;54.400;18.566;2023-04-03T07:39:26;3.50;94.70
42365;DHT22;28498;54.400;18.566;2023-04-03T07:41:54;3.30;90.20
42365;DHT22;28498;54.400;18.566;2023-04-03T07:44:24;3.50;90.60
42365;DHT22;28498;54.400;18.566;2023-04-03T07:46:52;3.50;89.50
42365;DHT22;28498;54.400;18.566;2023-04-03T07:49:18;3.40;90.10
42365;DHT22;28498;54.400;18.566;2023-04-03T07:51:46;3.30;90.80
42365;DHT22;28498;54.400;18.566;2023-04-03T07:54:13;3.20;91.30
42365;DHT22;28498;54.400;18.566;2023-04-03T07:56:40;3.10;89.60
42365;DHT22;28498;54.400;18.566;2023-04-03T07:59:09;3.20;90.50
42365;DHT22;28498;54.400;18.566;2023-04-03T08:01:37;3.20;90.90
42365;DHT22;28498;54.400;18.566;2023-04-03T08:04:05;3.30;89.20
42365;DHT22;28498;54.400;18.566;2023-04-03T08:06:33;3.30;90.30
42365;DHT22;28498;54.400;18.566;2023-04-03T08:09:13;3.40;90.60
42365;DHT22;28498;54.400;18.566;2023-04-03T08:11:41;3.30;86.90
42365;DHT22;28498;54.400;18.566;2023-04-03T08:14:08;3.40;88.10
42365;DHT22;28498;54.400;18.566;2023-04-03T08:16:37;3.30;88.30
42365;DHT22;28498;54.400;18.566;2023-04-03T08:19:04;3.60;89.90
42365;DHT22;28498;54.400;18.566;2023-04-03T08:21:40;3.70;88.70
42365;DHT22;28498;54.400;18.566;2023-04-03T08:24:08;3.70;87.60
42365;DHT22;28498;54.400;18.566;2023-04-03T08:26:36;3.30;87.10
42365;DHT22;28498;54.400;18.566;2023-04-03T08:29:03;3.30;89.90
42365;DHT22;28498;54.400;18.566;2023-04-03T08:31:30;3.40;90.40
42365;DHT22;28498;54.400;18.566;2023-04-03T08:33:57;3.50;90.40
42365;DHT22;28498;54.400;18.566;2023-04-03T08:36:27;3.60;90.50
42365;DHT22;28498;54.400;18.566;2023-04-03T08:38:55;4.00;90.50
42365;DHT22;28498;54.400;18.566;2023-04-03T08:41:41;4.20;90.30
42365;DHT22;28498;54.400;18.566;2023-04-03T08:44:21;4.50;90.30
42365;DHT22;28498;54.400;18.566;2023-04-03T08:49:35;4.30;89.50
42365;DHT22;28498;54.400;18.566;2023-04-03T08:52:10;3.80;88.30
42365;DHT22;28498;54.400;18.566;2023-04-03T08:57:14;3.80;91.30
42365;DHT22;28498;54.400;18.566;2023-04-03T08:59:41;3.60;91.40
42365;DHT22;28498;54.400;18.566;2023-04-03T09:02:40;3.50;92.50
42365;DHT22;28498;54.400;18.566;2023-04-03T09:05:16;3.60;93.40
42365;DHT22;28498;54.400;18.566;2023-04-03T09:07:47;3.70;93.60
42365;DHT22;28498;54.400;18.566;2023-04-03T09:10:24;3.90;93.20
42365;DHT22;28498;54.400;18.566;2023-04-03T09:13:06;3.70;93.80
42365;DHT22;28498;54.400;18.566;2023-04-03T09:15:33;3.70;93.40
42365;DHT22;28498;54.400;18.566;2023-04-03T09:18:22;3.90;94.40
42365;DHT22;28498;54.400;18.566;2023-04-03T09:20:56;4.00;94.00
42365;DHT22;28498;54.400;18.566;2023-04-03T09:26:19;4.60;94.20
42365;DHT22;28498;54.400;18.566;2023-04-03T09:28:49;4.50;94.30
42365;DHT22;28498;54.400;18.566;2023-04-03T09:31:19;4.50;94.30
42365;DHT22;28498;54.400;18.566;2023-04-03T09:33:49;4.30;95.20
42365;DHT22;28498;54.400;18.566;2023-04-03T09:36:57;4.50;95.90
42365;DHT22;28498;54.400;18.566;2023-04-03T09:39:27;4.60;95.90
42365;DHT22;28498;54.400;18.566;2023-04-03T09:41:59;4.70;96.70
42365;DHT22;28498;54.400;18.566;2023-04-03T09:44:35;4.50;97.10
42365;DHT22;28498;54.400;18.566;2023-04-03T09:47:25;4.20;99.60
42365;DHT22;28498;54.400;18.566;2023-04-03T09:52:44;4.20;99.90
42365;DHT22;28498;54.400;18.566;2023-04-03T09:55:20;4.40;99.90
42365;DHT22;28498;54.400;18.566;2023-04-03T09:58:01;4.50;99.90
42365;DHT22;28498;54.400;18.566;2023-04-03T10:00:30;4.60;99.90
42365;DHT22;28498;54.400;18.566;2023-04-03T10:02:59;4.80;99.90
42365;DHT22;28498;54.400;18.566;2023-04-03T10:10:34;3.80;99.90
42365;DHT22;28498;54.400;18.566;2023-04-03T10:13:06;3.80;99.90
42365;DHT22;28498;54.400;18.566;2023-04-03T10:15:42;3.90;99.90
42365;DHT22;28498;54.400;18.566;2023-04-03T10:20:51;3.70;99.90
42365;DHT22;28498;54.400;18.566;2023-04-03T10:29:27;3.80;99.90
42365;DHT22;28498;54.400;18.566;2023-04-03T10:32:40;4.10;99.90
42365;DHT22;28498;54.400;18.566;2023-04-03T10:37:59;4.20;99.90
42365;DHT22;28498;54.400;18.566;2023-04-03T10:40:57;3.90;99.90
42365;DHT22;28498;54.400;18.566;2023-04-03T10:43:44;4.00;99.90
42365;DHT22;28498;54.400;18.566;2023-04-03T10:54:39;4.30;99.90
42365;DHT22;28498;54.400;18.566;2023-04-03T10:57:09;4.50;99.90
42365;DHT22;28498;54.400;18.566;2023-04-03T10:59:53;4.30;99.90
42365;DHT22;28498;54.400;18.566;2023-04-03T11:07:42;4.20;99.90
42365;DHT22;28498;54.400;18.566;2023-04-03T11:13:27;4.60;99.90
42365;DHT22;28498;54.400;18.566;2023-04-03T11:15:58;4.50;99.90
42365;DHT22;28498;54.400;18.566;2023-04-03T11:18:40;4.30;99.90
42365;DHT22;28498;54.400;18.566;2023-04-03T11:21:13;4.50;99.90
42365;DHT22;28498;54.400;18.566;2023-04-03T11:23:44;4.50;99.90
42365;DHT22;28498;54.400;18.566;2023-04-03T11:26:19;4.60;99.90
42365;DHT22;28498;54.400;18.566;2023-04-03T11:28:53;4.60;99.90
42365;DHT22;28498;54.400;18.566;2023-04-03T11:34:28;4.90;99.90
42365;DHT22;28498;54.400;18.566;2023-04-03T11:37:01;4.50;99.90
42365;DHT22;28498;54.400;18.566;2023-04-03T11:39:35;4.40;99.90
42365;DHT22;28498;54.400;18.566;2023-04-03T11:44:51;4.90;99.90
42365;DHT22;28498;54.400;18.566;2023-04-03T12:16:24;5.20;95.30
42365;DHT22;28498;54.400;18.566;2023-04-03T12:22:09;4.50;96.00
42365;DHT22;28498;54.400;18.566;2023-04-03T12:40:26;4.50;94.10
42365;DHT22;28498;54.400;18.566;2023-04-03T12:43:59;4.40;92.30
42365;DHT22;28498;54.400;18.566;2023-04-03T12:48:50;4.30;94.40
42365;DHT22;28498;54.400;18.566;2023-04-03T12:51:42;4.40;95.60
42365;DHT22;28498;54.400;18.566;2023-04-03T12:56:39;4.20;94.50
42365;DHT22;28498;54.400;18.566;2023-04-03T12:59:24;4.10;96.10
42365;DHT22;28498;54.400;18.566;2023-04-03T13:01:59;4.20;96.60
42365;DHT22;28498;54.400;18.566;2023-04-03T13:04:28;4.30;97.30
42365;DHT22;28498;54.400;18.566;2023-04-03T13:06:55;4.50;97.80
42365;DHT22;28498;54.400;18.566;2023-04-03T13:09:25;4.60;96.80
42365;DHT22;28498;54.400;18.566;2023-04-03T13:12:14;4.60;97.40
42365;DHT22;28498;54.400;18.566;2023-04-03T13:14:53;4.70;97.30
42365;DHT22;28498;54.400;18.566;2023-04-03T13:17:23;5.00;97.70
42365;DHT22;28498;54.400;18.566;2023-04-03T13:19:51;4.50;99.90
42365;DHT22;28498;54.400;18.566;2023-04-03T13:22:34;4.20;99.90
42365;DHT22;28498;54.400;18.566;2023-04-03T13:25:08;4.00;99.90
42365;DHT22;28498;54.400;18.566;2023-04-03T13:27:38;3.60;99.90
42365;DHT22;28498;54.400;18.566;2023-04-03T13:30:17;3.60;99.90
42365;DHT22;28498;54.400;18.566;2023-04-03T13:32:46;4.10;99.90
42365;DHT22;28498;54.400;18.566;2023-04-03T13:38:27;4.30;99.90
42365;DHT22;28498;54.400;18.566;2023-04-03T13:40:54;4.10;97.20
42365;DHT22;28498;54.400;18.566;2023-04-03T13:43:26;4.20;99.30
42365;DHT22;28498;54.400;18.566;2023-04-03T13:48:27;4.00;95.60
42365;DHT22;28498;54.400;18.566;2023-04-03T13:51:26;4.10;96.00
42365;DHT22;28498;54.400;18.566;2023-04-03T13:54:01;4.20;96.40
42365;DHT22;28498;54.400;18.566;2023-04-03T13:56:40;4.30;97.10
42365;DHT22;28498;54.400;18.566;2023-04-03T14:01:50;4.20;95.10
42365;DHT22;28498;54.400;18.566;2023-04-03T14:04:26;4.30;95.60
42365;DHT22;28498;54.400;18.566;2023-04-03T14:06:55;4.20;94.70
42365;DHT22;28498;54.400;18.566;2023-04-03T14:09:23;4.40;95.10
42365;DHT22;28498;54.400;18.566;2023-04-03T14:11:53;4.30;95.30
42365;DHT22;28498;54.400;18.566;2023-04-03T14:14:27;4.20;95.30
42365;DHT22;28498;54.400;18.566;2023-04-03T14:17:00;4.30;96.00
42365;DHT22;28498;54.400;18.566;2023-04-03T14:19:29;4.10;95.20
42365;DHT22;28498;54.400;18.566;2023-04-03T14:21:58;3.80;95.60
42365;DHT22;28498;54.400;18.566;2023-04-03T14:24:25;3.60;96.70
42365;DHT22;28498;54.400;18.566;2023-04-03T14:26:54;3.90;95.40
42365;DHT22;28498;54.400;18.566;2023-04-03T14:29:22;4.10;94.40
42365;DHT22;28498;54.400;18.566;2023-04-03T14:31:50;4.20;92.70
42365;DHT22;28498;54.400;18.566;2023-04-03T14:34:29;4.50;91.10
42365;DHT22;28498;54.400;18.566;2023-04-03T14:36:56;4.30;91.70
42365;DHT22;28498;54.400;18.566;2023-04-03T14:39:24;4.20;93.00
42365;DHT22;28498;54.400;18.566;2023-04-03T14:41:51;4.10;94.70
42365;DHT22;28498;54.400;18.566;2023-04-03T14:44:18;3.90;96.90
42365;DHT22;28498;54.400;18.566;2023-04-03T14:46:45;3.90;98.70
42365;DHT22;28498;54.400;18.566;2023-04-03T14:49:26;3.90;99.50
42365;DHT22;28498;54.400;18.566;2023-04-03T14:51:55;3.90;99.90
42365;DHT22;28498;54.400;18.566;2023-04-03T14:54:23;3.70;99.90
42365;DHT22;28498;54.400;18.566;2023-04-03T14:56:55;3.70;99.90
42365;DHT22;28498;54.400;18.566;2023-04-03T14:59:25;3.90;98.90
42365;DHT22;28498;54.400;18.566;2023-04-03T15:01:52;4.00;98.10
42365;DHT22;28498;54.400;18.566;2023-04-03T15:04:20;4.10;98.00
42365;DHT22;28498;54.400;18.566;2023-04-03T15:06:48;4.00;98.00
42365;DHT22;28498;54.400;18.566;2023-04-03T15:09:22;3.80;96.00
42365;DHT22;28498;54.400;18.566;2023-04-03T15:11:50;3.50;93.60
42365;DHT22;28498;54.400;18.566;2023-04-03T15:14:18;3.30;94.00
42365;DHT22;28498;54.400;18.566;2023-04-03T15:17:06;3.30;91.40
42365;DHT22;28498;54.400;18.566;2023-04-03T15:19:37;3.40;92.20
42365;DHT22;28498;54.400;18.566;2023-04-03T15:22:05;3.60;93.70
42365;DHT22;28498;54.400;18.566;2023-04-03T15:24:32;4.30;93.40
42365;DHT22;28498;54.400;18.566;2023-04-03T15:27:00;4.70;92.50
42365;DHT22;28498;54.400;18.566;2023-04-03T15:29:27;4.40;92.30
42365;DHT22;28498;54.400;18.566;2023-04-03T15:31:54;4.10;93.70
42365;DHT22;28498;54.400;18.566;2023-04-03T15:34:22;3.80;95.80
42365;DHT22;28498;54.400;18.566;2023-04-03T15:36:50;3.50;97.10
42365;DHT22;28498;54.400;18.566;2023-04-03T15:39:19;3.40;99.00
42365;DHT22;28498;54.400;18.566;2023-04-03T15:41:47;3.30;99.90
42365;DHT22;28498;54.400;18.566;2023-04-03T15:44:14;3.20;99.90
42365;DHT22;28498;54.400;18.566;2023-04-03T15:46:45;3.10;99.90
42365;DHT22;28498;54.400;18.566;2023-04-03T15:49:13;3.20;99.90
42365;DHT22;28498;54.400;18.566;2023-04-03T15:51:40;3.10;99.90
42365;DHT22;28498;54.400;18.566;2023-04-03T15:54:07;3.20;99.90
42365;DHT22;28498;54.400;18.566;2023-04-03T15:56:34;3.30;99.90
42365;DHT22;28498;54.400;18.566;2023-04-03T15:59:01;3.10;99.90
42365;DHT22;28498;54.400;18.566;2023-04-03T16:01:29;3.00;99.90
42365;DHT22;28498;54.400;18.566;2023-04-03T16:03:56;2.90;99.90
42365;DHT22;28498;54.400;18.566;2023-04-03T16:06:24;2.80;99.90
42365;DHT22;28498;54.400;18.566;2023-04-03T16:08:52;2.80;99.90
42365;DHT22;28498;54.400;18.566;2023-04-03T16:11:25;2.80;99.90
42365;DHT22;28498;54.400;18.566;2023-04-03T16:13:54;2.70;99.90
42365;DHT22;28498;54.400;18.566;2023-04-03T16:16:23;2.80;99.90
42365;DHT22;28498;54.400;18.566;2023-04-03T16:18:54;2.80;99.90
42365;DHT22;28498;54.400;18.566;2023-04-03T16:21:22;2.80;99.90
42365;DHT22;28498;54.400;18.566;2023-04-03T16:23:50;2.90;99.90
42365;DHT22;28498;54.400;18.566;2023-04-03T16:26:17;2.80;99.50
42365;DHT22;28498;54.400;18.566;2023-04-03T16:28:44;2.80;98.60
42365;DHT22;28498;54.400;18.566;2023-04-03T16:31:11;2.70;98.20
42365;DHT22;28498;54.400;18.566;2023-04-03T16:33:38;2.70;99.40
42365;DHT22;28498;54.400;18.566;2023-04-03T16:36:06;2.70;99.90
42365;DHT22;28498;54.400;18.566;2023-04-03T16:38:33;2.60;99.90
42365;DHT22;28498;54.400;18.566;2023-04-03T16:41:00;2.50;99.90
42365;DHT22;28498;54.400;18.566;2023-04-03T16:43:32;2.60;99.90
42365;DHT22;28498;54.400;18.566;2023-04-03T16:45:59;2.50;99.90
42365;DHT22;28498;54.400;18.566;2023-04-03T16:48:29;2.50;99.90
42365;DHT22;28498;54.400;18.566;2023-04-03T16:50:56;2.50;99.90
42365;DHT22;28498;54.400;18.566;2023-04-03T16:53:24;2.40;99.90
42365;DHT22;28498;54.400;18.566;2023-04-03T16:55:52;2.40;99.90
42365;DHT22;28498;54.400;18.566;2023-04-03T16:58:19;2.30;99.90
42365;DHT22;28498;54.400;18.566;2023-04-03T17:00:49;2.20;99.90
42365;DHT22;28498;54.400;18.566;2023-04-03T17:03:16;2.20;99.60
42365;DHT22;28498;54.400;18.566;2023-04-03T17:05:47;2.20;99.80
42365;DHT22;28498;54.400;18.566;2023-04-03T17:08:15;2.20;99.90
42365;DHT22;28498;54.400;18.566;2023-04-03T17:10:42;2.20;99.90
42365;DHT22;28498;54.400;18.566;2023-04-03T17:13:10;2.20;99.90
42365;DHT22;28498;54.400;18.566;2023-04-03T17:15:37;2.10;99.90
42365;DHT22;28498;54.400;18.566;2023-04-03T17:18:04;2.10;99.90
42365;DHT22;28498;54.400;18.566;2023-04-03T17:20:31;2.00;99.90
42365;DHT22;28498;54.400;18.566;2023-04-03T17:23:00;2.00;99.90
42365;DHT22;28498;54.400;18.566;2023-04-03T17:25:27;2.00;99.90
42365;DHT22;28498;54.400;18.566;2023-04-03T17:27:54;2.00;99.90
42365;DHT22;28498;54.400;18.566;2023-04-03T17:30:22;2.00;99.90
42365;DHT22;28498;54.400;18.566;2023-04-03T17:32:49;2.00;99.90
42365;DHT22;28498;54.400;18.566;2023-04-03T17:35:17;2.00;99.90
42365;DHT22;28498;54.400;18.566;2023-04-03T17:37:44;2.00;99.90
42365;DHT22;28498;54.400;18.566;2023-04-03T17:40:11;1.90;99.90
42365;DHT22;28498;54.400;18.566;2023-04-03T17:42:40;1.90;99.90
42365;DHT22;28498;54.400;18.566;2023-04-03T17:45:07;1.90;99.90